createdAt,value
2022-09-28T00:01:06.579Z,9.11
2022-09-28T00:03:34.422Z,9.07
2022-09-28T00:06:03.938Z,9.05
2022-09-28T00:08:31.809Z,9.01
2022-09-28T00:10:59.609Z,8.99
2022-09-28T00:13:28.130Z,8.95
2022-09-28T00:16:05.781Z,8.88
2022-09-28T00:18:33.959Z,8.83
2022-09-28T00:21:04.707Z,8.84
2022-09-28T00:23:33.201Z,8.81
2022-09-28T00:26:04.561Z,8.82
2022-09-28T00:28:32.699Z,8.76
2022-09-28T00:31:01.044Z,8.76
2022-09-28T00:33:30.614Z,8.74
2022-09-28T00:35:59.035Z,8.73
2022-09-28T00:38:30.526Z,8.71
2022-09-28T00:40:59.516Z,8.69
2022-09-28T00:43:28.022Z,8.65
2022-09-28T00:46:00.034Z,8.63
2022-09-28T00:48:33.330Z,8.61
2022-09-28T00:51:06.395Z,8.58
2022-09-28T00:53:37.833Z,8.54
2022-09-28T00:56:08.664Z,8.53
2022-09-28T00:58:41.890Z,8.47
2022-09-28T01:01:09.837Z,8.45
2022-09-28T01:03:41.263Z,8.44
2022-09-28T01:06:10.490Z,8.27
2022-09-28T01:08:40.424Z,8.34
2022-09-28T01:11:08.522Z,8.28
2022-09-28T01:13:36.998Z,8.31
2022-09-28T01:16:13.809Z,8.36
2022-09-28T01:18:53.727Z,8.40
2022-09-28T01:21:23.295Z,8.48
2022-09-28T01:24:14.219Z,8.59
2022-09-28T01:26:57.530Z,8.53
2022-09-28T01:29:36.734Z,8.64
2022-09-28T01:32:14.469Z,8.72
2022-09-28T01:34:48.158Z,8.78
2022-09-28T01:37:19.333Z,8.86
2022-09-28T01:39:51.033Z,8.91
2022-09-28T01:42:25.410Z,8.94
2022-09-28T01:44:57.153Z,8.94
2022-09-28T01:47:28.018Z,8.96
2022-09-28T01:50:01.588Z,8.95
2022-09-28T01:52:36.058Z,8.99
2022-09-28T01:55:09.538Z,9.00
2022-09-28T01:57:43.386Z,9.05
2022-09-28T02:00:15.799Z,9.07
2022-09-28T02:02:50.324Z,9.04
2022-09-28T02:05:30.325Z,9.05
2022-09-28T02:08:04.576Z,9.13
2022-09-28T02:10:36.716Z,9.17
2022-09-28T02:13:12.734Z,9.24
2022-09-28T02:15:47.076Z,9.27
2022-09-28T02:18:15.404Z,9.24
2022-09-28T02:20:50.234Z,9.24
2022-09-28T02:23:19.863Z,9.25
2022-09-28T02:25:52.562Z,9.30
2022-09-28T02:28:23.025Z,9.32
2022-09-28T02:30:51.727Z,9.35
2022-09-28T02:33:24.321Z,9.36
2022-09-28T02:35:52.445Z,9.33
2022-09-28T02:38:22.286Z,9.38
2022-09-28T02:41:05.677Z,9.38
2022-09-28T02:43:47.349Z,9.39
2022-09-28T02:46:26.721Z,9.41
2022-09-28T02:49:30.446Z,9.31
2022-09-28T02:52:25.796Z,9.34
2022-09-28T02:55:14.546Z,9.37
2022-09-28T02:57:56.825Z,9.27
2022-09-28T03:00:27.370Z,9.29
2022-09-28T03:03:02.409Z,9.32
2022-09-28T03:05:39.837Z,9.38
2022-09-28T03:08:16.116Z,9.34
2022-09-28T03:10:47.690Z,9.32
2022-09-28T03:13:17.762Z,9.31
2022-09-28T03:15:48.955Z,9.26
2022-09-28T03:18:18.798Z,9.32
2022-09-28T03:20:46.827Z,9.29
2022-09-28T03:23:29.944Z,9.29
2022-09-28T03:25:57.886Z,9.30
2022-09-28T03:28:25.849Z,9.29
2022-09-28T03:30:55.295Z,9.21
2022-09-28T03:33:23.511Z,9.12
2022-09-28T03:35:52.457Z,9.13
2022-09-28T03:38:21.252Z,9.12
2022-09-28T03:40:54.548Z,9.15
2022-09-28T03:43:22.972Z,9.18
2022-09-28T03:45:58.251Z,9.22
2022-09-28T03:48:32.134Z,9.13
2022-09-28T03:51:02.946Z,9.12
2022-09-28T03:53:31.376Z,9.23
2022-09-28T03:56:04.721Z,9.26
2022-09-28T03:58:33.716Z,9.27
2022-09-28T04:01:12.905Z,9.22
2022-09-28T04:03:44.422Z,9.29
2022-09-28T04:06:12.848Z,9.31
2022-09-28T04:08:40.680Z,9.28
2022-09-28T04:11:09.816Z,9.24
2022-09-28T04:13:38.078Z,9.18
2022-09-28T04:16:11.244Z,9.24
2022-09-28T04:18:40.316Z,9.22
2022-09-28T04:21:26.607Z,9.28
2022-09-28T04:24:04.129Z,9.26
2022-09-28T04:26:32.021Z,9.29
2022-09-28T04:29:16.953Z,9.31
2022-09-28T04:31:53.069Z,9.32
2022-09-28T04:34:23.982Z,9.37
2022-09-28T04:36:51.880Z,9.40
2022-09-28T04:39:20.257Z,9.39
2022-09-28T04:41:51.485Z,9.41
2022-09-28T04:44:19.739Z,9.39
2022-09-28T04:46:50.220Z,9.41
2022-09-28T04:49:29.918Z,9.41
2022-09-28T04:52:02.874Z,9.40
2022-09-28T04:54:30.885Z,9.42
2022-09-28T04:56:58.831Z,9.45
2022-09-28T04:59:27.028Z,9.42
2022-09-28T05:01:56.254Z,9.34
2022-09-28T05:04:53.356Z,9.34
2022-09-28T05:07:47.348Z,9.31
2022-09-28T05:10:15.201Z,9.39
2022-09-28T05:12:43.184Z,9.37
2022-09-28T05:15:12.590Z,9.40
2022-09-28T05:17:42.137Z,9.37
2022-09-28T05:20:22.134Z,9.39
2022-09-28T05:22:50.045Z,9.39
2022-09-28T05:25:18.700Z,9.39
2022-09-28T05:28:24.804Z,9.44
2022-09-28T05:31:12.576Z,9.42
2022-09-28T05:34:00.521Z,9.46
2022-09-28T05:36:30.925Z,9.38
2022-09-28T05:38:58.757Z,9.40
2022-09-28T05:41:26.474Z,9.43
2022-09-28T05:43:55.034Z,9.44
2022-09-28T05:46:23.820Z,9.42
2022-09-28T05:48:52.629Z,9.45
2022-09-28T05:51:25.329Z,9.41
2022-09-28T05:53:55.362Z,9.44
2022-09-28T05:56:24.204Z,9.40
2022-09-28T05:58:53.407Z,9.38
2022-09-28T06:01:23.592Z,9.37
2022-09-28T06:03:53.077Z,9.43
2022-09-28T06:06:25.710Z,9.47
2022-09-28T06:08:54.089Z,9.48
2022-09-28T06:11:54.129Z,9.48
2022-09-28T06:14:31.095Z,9.46
2022-09-28T06:16:58.996Z,9.45
2022-09-28T06:19:26.872Z,9.46
2022-09-28T06:22:08.849Z,9.53
2022-09-28T06:24:45.412Z,9.61
2022-09-28T06:27:13.270Z,9.66
2022-09-28T06:29:41.010Z,9.75
2022-09-28T06:32:08.893Z,9.82
2022-09-28T06:34:38.793Z,9.81
2022-09-28T06:37:08.117Z,9.86
2022-09-28T06:39:36.877Z,9.82
2022-09-28T06:42:05.034Z,9.85
2022-09-28T06:44:59.275Z,9.83
2022-09-28T06:47:44.223Z,9.80
2022-09-28T06:50:19.342Z,9.91
2022-09-28T06:52:57.071Z,9.92
2022-09-28T06:55:33.965Z,9.95
2022-09-28T06:58:05.599Z,9.96
2022-09-28T07:00:35.988Z,10.00
2022-09-28T07:03:05.433Z,10.01
2022-09-28T07:06:13.215Z,10.02
2022-09-28T07:09:21.044Z,10.06
2022-09-28T07:12:21.274Z,9.96
2022-09-28T07:14:57.265Z,9.92
2022-09-28T07:17:27.602Z,9.79
2022-09-28T07:19:59.764Z,9.72
2022-09-28T07:22:41.953Z,9.73
2022-09-28T07:25:15.824Z,9.66
2022-09-28T07:28:04.171Z,9.58
2022-09-28T07:30:57.428Z,9.54
2022-09-28T07:33:47.416Z,9.52
2022-09-28T07:36:22.647Z,9.54
2022-09-28T07:38:51.939Z,9.52
2022-09-28T07:41:32.158Z,9.49
2022-09-28T07:44:05.906Z,9.52
2022-09-28T07:46:35.780Z,9.63
2022-09-28T07:49:12.732Z,9.73
2022-09-28T07:52:10.692Z,9.72
2022-09-28T07:54:52.100Z,9.77
2022-09-28T07:57:47.007Z,9.76
2022-09-28T08:00:34.298Z,9.80
2022-09-28T08:03:03.589Z,9.85
2022-09-28T08:05:35.819Z,9.86
2022-09-28T08:08:03.860Z,9.78
2022-09-28T08:10:31.748Z,9.86
2022-09-28T08:13:04.738Z,9.89
2022-09-28T08:15:52.724Z,9.86
2022-09-28T08:18:34.674Z,9.94
2022-09-28T08:21:35.503Z,9.97
2022-09-28T08:24:03.391Z,10.05
2022-09-28T08:26:31.475Z,10.03
2022-09-28T08:29:00.612Z,10.05
2022-09-28T08:31:48.764Z,10.00
2022-09-28T08:34:34.991Z,10.03
2022-09-28T08:37:25.609Z,10.10
2022-09-28T08:40:18.513Z,10.05
2022-09-28T08:43:23.096Z,10.07
2022-09-28T08:46:15.952Z,10.08
2022-09-28T08:49:24.847Z,9.92
2022-09-28T08:52:17.863Z,9.87
2022-09-28T08:55:10.891Z,9.80
2022-09-28T08:57:48.007Z,9.80
2022-09-28T09:00:21.944Z,9.83
2022-09-28T09:02:51.393Z,9.83
2022-09-28T09:05:25.018Z,9.83
2022-09-28T09:08:24.637Z,9.91
2022-09-28T09:10:57.847Z,9.91
2022-09-28T09:14:01.866Z,9.93
2022-09-28T09:16:38.149Z,10.13
2022-09-28T09:19:54.205Z,10.21
2022-09-28T09:22:40.758Z,10.32
2022-09-28T09:25:19.228Z,10.42
2022-09-28T09:28:18.174Z,10.45
2022-09-28T09:30:58.166Z,10.45
2022-09-28T09:33:46.381Z,10.50
2022-09-28T09:36:53.511Z,10.57
2022-09-28T09:39:53.603Z,10.47
2022-09-28T09:43:05.566Z,10.46
2022-09-28T09:46:01.453Z,10.52
2022-09-28T09:48:41.612Z,10.73
2022-09-28T09:51:18.133Z,10.75
2022-09-28T09:53:55.480Z,10.80
2022-09-28T09:56:31.188Z,10.93
2022-09-28T09:59:19.833Z,10.92
2022-09-28T10:02:23.633Z,10.91
2022-09-28T10:05:02.082Z,10.91
2022-09-28T10:07:43.663Z,10.74
2022-09-28T10:10:21.429Z,10.71
2022-09-28T10:12:51.396Z,10.73
2022-09-28T10:15:24.774Z,10.76
2022-09-28T10:18:22.233Z,10.75
2022-09-28T10:21:16.054Z,10.90
2022-09-28T10:23:56.267Z,10.94
2022-09-28T10:26:30.401Z,10.85
2022-09-28T10:29:03.129Z,10.73
2022-09-28T10:31:39.482Z,10.68
2022-09-28T10:34:19.642Z,10.70
2022-09-28T10:36:51.971Z,10.66
2022-09-28T10:39:38.948Z,10.57
2022-09-28T10:42:12.245Z,10.34
2022-09-28T10:44:52.597Z,10.45
2022-09-28T10:47:37.732Z,10.45
2022-09-28T10:50:20.922Z,10.66
2022-09-28T10:52:50.882Z,10.82
2022-09-28T10:55:41.465Z,11.14
2022-09-28T10:58:27.943Z,11.19
2022-09-28T11:01:03.040Z,11.07
2022-09-28T11:03:33.244Z,10.92
2022-09-28T11:06:08.537Z,11.02
2022-09-28T11:08:40.838Z,11.29
2022-09-28T11:11:12.736Z,11.46
2022-09-28T11:13:45.484Z,11.60
2022-09-28T11:16:26.035Z,11.82
2022-09-28T11:18:55.840Z,11.98
2022-09-28T11:21:26.007Z,11.99
2022-09-28T11:24:05.772Z,12.05
2022-09-28T11:26:39.505Z,11.82
2022-09-28T11:29:22.178Z,11.70
2022-09-28T11:32:03.274Z,11.82
2022-09-28T11:34:58.218Z,11.83
2022-09-28T11:37:52.771Z,12.10
2022-09-28T11:40:48.693Z,12.21
2022-09-28T11:43:30.607Z,12.26
2022-09-28T11:46:09.788Z,12.17
2022-09-28T11:48:45.281Z,12.18
2022-09-28T11:51:19.311Z,12.19
2022-09-28T11:53:53.280Z,12.27
2022-09-28T11:56:33.412Z,12.30
2022-09-28T11:59:05.085Z,12.11
2022-09-28T12:01:48.259Z,11.99
2022-09-28T12:04:31.145Z,12.15
2022-09-28T12:07:05.271Z,12.45
2022-09-28T12:09:37.262Z,12.51
2022-09-28T12:12:26.410Z,12.37
2022-09-28T12:15:02.043Z,12.40
2022-09-28T12:17:37.867Z,12.40
2022-09-28T12:20:16.554Z,12.61
2022-09-28T12:22:49.442Z,12.91
2022-09-28T12:25:22.243Z,13.03
2022-09-28T12:27:55.026Z,13.18
2022-09-28T12:30:25.271Z,13.25
2022-09-28T12:33:01.053Z,13.32
2022-09-28T12:35:40.207Z,13.23
2022-09-28T12:38:30.731Z,13.19
2022-09-28T12:41:06.616Z,13.23
2022-09-28T12:43:46.610Z,13.19
2022-09-28T12:46:29.117Z,13.27
2022-09-28T12:50:20.047Z,13.59
2022-09-28T12:52:01.429Z,13.48
2022-09-28T12:54:56.723Z,13.27
2022-09-28T12:57:37.306Z,13.17
2022-09-28T13:00:09.328Z,13.18
2022-09-28T13:03:18.542Z,13.23
2022-09-28T13:06:23.648Z,13.20
2022-09-28T13:09:02.340Z,13.47
2022-09-28T13:11:34.978Z,13.51
2022-09-28T13:14:32.861Z,13.07
2022-09-28T13:17:09.550Z,13.03
2022-09-28T13:19:44.293Z,13.09
2022-09-28T13:22:28.407Z,13.11
2022-09-28T13:25:00.771Z,13.09
2022-09-28T13:27:35.286Z,12.91
2022-09-28T13:30:07.901Z,12.69
2022-09-28T13:32:38.993Z,12.71
2022-09-28T13:35:07.394Z,12.55
2022-09-28T13:37:36.486Z,12.46
2022-09-28T13:40:06.313Z,12.47
2022-09-28T13:42:50.985Z,12.44
2022-09-28T13:45:36.102Z,12.36
2022-09-28T13:48:17.151Z,12.26
2022-09-28T13:51:02.640Z,12.27
2022-09-28T13:53:43.197Z,12.24
2022-09-28T13:56:25.553Z,12.18
2022-09-28T13:58:58.122Z,12.25
2022-09-28T14:01:30.786Z,12.23
2022-09-28T14:04:16.519Z,12.34
2022-09-28T14:06:49.420Z,12.44
2022-09-28T14:09:42.432Z,12.44
2022-09-28T14:12:44.182Z,12.43
2022-09-28T14:15:40.954Z,12.65
2022-09-28T14:18:19.053Z,12.84
2022-09-28T14:20:59.419Z,12.91
2022-09-28T14:23:50.562Z,12.95
2022-09-28T14:26:48.416Z,13.14
2022-09-28T14:29:28.500Z,13.14
2022-09-28T14:31:58.202Z,13.03
2022-09-28T14:34:33.412Z,12.98
2022-09-28T14:37:20.706Z,12.73
2022-09-28T14:40:06.411Z,12.54
2022-09-28T14:42:35.707Z,12.39
2022-09-28T14:45:21.861Z,12.19
2022-09-28T14:48:21.241Z,12.01
2022-09-28T14:50:49.957Z,11.89
2022-09-28T14:53:24.865Z,11.94
2022-09-28T14:55:56.368Z,11.87
2022-09-28T14:58:28.742Z,11.79
2022-09-28T15:01:02.029Z,11.88
2022-09-28T15:03:34.317Z,11.93
2022-09-28T15:06:02.747Z,11.95
2022-09-28T15:08:38.446Z,12.06
2022-09-28T15:11:07.067Z,12.06
2022-09-28T15:13:36.255Z,11.96
2022-09-28T15:16:09.917Z,11.98
2022-09-28T15:19:18.583Z,11.87
2022-09-28T15:21:48.691Z,11.88
2022-09-28T15:24:27.875Z,11.89
2022-09-28T15:26:56.704Z,11.93
2022-09-28T15:29:27.260Z,11.98
2022-09-28T15:31:55.007Z,11.94
2022-09-28T15:34:48.690Z,11.93
2022-09-28T15:37:18.989Z,11.96
2022-09-28T15:39:48.120Z,11.98
2022-09-28T15:42:18.391Z,11.92
2022-09-28T15:45:03.960Z,11.99
2022-09-28T15:47:33.047Z,12.03
2022-09-28T15:50:02.955Z,12.02
2022-09-28T15:52:38.279Z,12.05
2022-09-28T15:55:19.205Z,12.07
2022-09-28T15:57:47.933Z,12.21
2022-09-28T16:00:29.612Z,12.54
2022-09-28T16:03:20.102Z,12.63
2022-09-28T16:05:50.826Z,12.64
2022-09-28T16:08:24.683Z,12.56
2022-09-28T16:11:01.192Z,12.58
2022-09-28T16:13:29.226Z,12.62
2022-09-28T16:16:01.104Z,12.76
2022-09-28T16:18:32.435Z,12.84
2022-09-28T16:21:26.039Z,12.73
2022-09-28T16:23:55.793Z,12.60
2022-09-28T16:26:32.073Z,12.58
2022-09-28T16:29:00.123Z,12.55
2022-09-28T16:31:37.047Z,12.69
2022-09-28T16:34:20.760Z,12.77
2022-09-28T16:36:50.041Z,12.66
2022-09-28T16:39:19.289Z,12.57
2022-09-28T16:41:51.444Z,12.47
2022-09-28T16:44:24.443Z,12.38
2022-09-28T16:46:56.886Z,12.27
2022-09-28T16:49:26.900Z,12.15
2022-09-28T16:51:55.022Z,12.09
2022-09-28T16:54:41.584Z,12.02
2022-09-28T16:57:12.413Z,11.96
2022-09-28T16:59:40.393Z,11.91
2022-09-28T17:02:46.321Z,11.85
2022-09-28T17:05:10.224Z,11.76
2022-09-28T17:07:38.237Z,11.67
2022-09-28T17:10:15.580Z,11.62
2022-09-28T17:12:43.357Z,11.53
2022-09-28T17:15:11.144Z,11.47
2022-09-28T17:17:41.125Z,11.34
2022-09-28T17:20:20.299Z,11.22
2022-09-28T17:22:48.108Z,11.10
2022-09-28T17:25:16.285Z,10.98
2022-09-28T17:27:47.289Z,10.87
2022-09-28T17:30:16.307Z,10.79
2022-09-28T17:32:47.115Z,10.70
2022-09-28T17:35:25.601Z,10.60
2022-09-28T17:37:53.908Z,10.54
2022-09-28T17:40:24.186Z,10.50
2022-09-28T17:42:55.004Z,10.45
2022-09-28T17:45:23.363Z,10.43
2022-09-28T17:47:52.809Z,10.45
2022-09-28T17:50:23.908Z,10.49
2022-09-28T17:52:53.241Z,10.54
2022-09-28T17:55:23.044Z,10.57
2022-09-28T17:57:51.575Z,10.61
2022-09-28T18:00:19.814Z,10.62
2022-09-28T18:02:48.647Z,10.61
2022-09-28T18:05:19.622Z,10.64
2022-09-28T18:07:48.014Z,10.63
2022-09-28T18:10:17.473Z,10.57
2022-09-28T18:12:45.444Z,10.54
2022-09-28T18:15:13.575Z,10.49
2022-09-28T18:17:41.757Z,10.41
2022-09-28T18:20:12.105Z,10.35
2022-09-28T18:22:41.438Z,10.30
2022-09-28T18:25:09.507Z,10.24
2022-09-28T18:27:37.246Z,10.16
2022-09-28T18:30:06.406Z,10.12
2022-09-28T18:32:36.800Z,10.08
2022-09-28T18:35:05.284Z,10.05
2022-09-28T18:37:37.345Z,10.00
2022-09-28T18:40:07.874Z,9.95
2022-09-28T18:42:36.229Z,9.89
2022-09-28T18:45:05.731Z,9.83
2022-09-28T18:47:34.851Z,9.80
2022-09-28T18:50:02.673Z,9.79
2022-09-28T18:52:30.467Z,9.77
2022-09-28T18:54:58.219Z,9.74
2022-09-28T18:57:27.561Z,9.75
2022-09-28T18:59:55.370Z,9.71
2022-09-28T19:02:23.412Z,9.69
2022-09-28T19:04:51.227Z,9.68
2022-09-28T19:07:19.034Z,9.66
2022-09-28T19:09:46.890Z,9.66
2022-09-28T19:12:15.674Z,9.71
2022-09-28T19:14:44.826Z,9.75
2022-09-28T19:17:12.721Z,9.82
2022-09-28T19:19:41.197Z,9.85
2022-09-28T19:22:09.632Z,9.89
2022-09-28T19:24:37.412Z,9.93
2022-09-28T19:27:05.333Z,9.94
2022-09-28T19:29:33.178Z,9.95
2022-09-28T19:32:02.831Z,9.97
2022-09-28T19:34:30.677Z,10.02
2022-09-28T19:36:58.496Z,10.02
2022-09-28T19:39:26.389Z,10.02
2022-09-28T19:41:57.121Z,10.03
2022-09-28T19:44:27.331Z,10.01
2022-09-28T19:46:56.871Z,10.00
2022-09-28T19:49:27.732Z,10.02
2022-09-28T19:54:49.062Z,10.02
2022-09-28T19:57:21.212Z,10.02
2022-09-28T19:59:52.550Z,10.01
2022-09-28T20:02:21.556Z,10.01
2022-09-28T20:04:50.974Z,10.02
2022-09-28T20:07:18.935Z,10.05
2022-09-28T20:09:46.912Z,10.05
2022-09-28T20:12:14.735Z,10.05
2022-09-28T20:14:42.641Z,10.05
2022-09-28T20:17:11.085Z,10.03
2022-09-28T20:19:39.127Z,10.00
2022-09-28T20:22:08.599Z,9.96
2022-09-28T20:24:36.392Z,9.95
2022-09-28T20:27:04.259Z,9.92
2022-09-28T20:29:33.380Z,9.86
2022-09-28T20:32:02.015Z,9.85
2022-09-28T20:34:29.824Z,9.82
2022-09-28T20:36:57.570Z,9.80
2022-09-28T20:39:26.735Z,9.77
2022-09-28T20:41:56.215Z,9.74
2022-09-28T20:44:23.997Z,9.70
2022-09-28T20:46:52.247Z,9.66
2022-09-28T20:49:20.108Z,9.59
2022-09-28T20:51:47.814Z,9.52
2022-09-28T20:54:15.552Z,9.47
2022-09-28T20:56:44.782Z,9.40
2022-09-28T20:59:13.599Z,9.37
2022-09-28T21:01:42.074Z,9.32
2022-09-28T21:04:11.297Z,9.29
2022-09-28T21:06:40.579Z,9.23
2022-09-28T21:09:10.171Z,9.20
2022-09-28T21:11:38.683Z,9.19
2022-09-28T21:14:09.534Z,9.15
2022-09-28T21:16:37.415Z,9.15
2022-09-28T21:19:05.501Z,9.12
2022-09-28T21:21:33.338Z,9.14
2022-09-28T21:24:01.956Z,9.16
2022-09-28T21:26:31.332Z,9.19
2022-09-28T21:29:00.480Z,9.25
2022-09-28T21:31:33.663Z,9.30
2022-09-28T21:34:01.903Z,9.35
2022-09-28T21:36:29.847Z,9.40
2022-09-28T21:38:57.942Z,9.44
2022-09-28T21:41:26.242Z,9.47
2022-09-28T21:43:54.050Z,9.49
2022-09-28T21:46:22.018Z,9.51
2022-09-28T21:48:54.324Z,9.52
2022-09-28T21:51:22.622Z,9.56
2022-09-28T21:53:50.390Z,9.58
2022-09-28T21:56:18.775Z,9.60
2022-09-28T21:58:47.202Z,9.62
2022-09-28T22:01:17.935Z,9.65
2022-09-28T22:03:47.974Z,9.67
2022-09-28T22:06:18.789Z,9.70
2022-09-28T22:08:47.032Z,9.71
2022-09-28T22:11:16.700Z,9.75
2022-09-28T22:13:46.398Z,9.75
2022-09-28T22:16:15.635Z,9.74
2022-09-28T22:18:43.732Z,9.76
2022-09-28T22:21:14.515Z,9.75
2022-09-28T22:23:44.188Z,9.76
2022-09-28T22:26:17.346Z,9.76
2022-09-28T22:28:47.283Z,9.77
2022-09-28T22:31:15.140Z,9.77
2022-09-28T22:33:43.117Z,9.77
2022-09-28T22:36:11.437Z,9.75
2022-09-28T22:38:39.978Z,9.78
2022-09-28T22:41:10.201Z,9.77
2022-09-28T22:43:38.178Z,9.78
2022-09-28T22:46:07.475Z,9.79
2022-09-28T22:48:35.720Z,9.79
2022-09-28T22:51:05.255Z,9.79
2022-09-28T22:53:33.632Z,9.80
2022-09-28T22:56:04.561Z,9.76
2022-09-28T22:58:33.785Z,9.80
2022-09-28T23:01:06.876Z,9.80
2022-09-28T23:03:34.844Z,9.80
2022-09-28T23:06:02.869Z,9.81
2022-09-28T23:08:32.098Z,9.82
2022-09-28T23:11:00.309Z,9.81
2022-09-28T23:13:28.658Z,9.79
2022-09-28T23:15:58.811Z,9.80
2022-09-28T23:18:29.554Z,9.80
2022-09-28T23:20:58.687Z,9.81
2022-09-28T23:23:27.455Z,9.79
2022-09-28T23:25:55.427Z,9.77
2022-09-28T23:28:25.385Z,9.73
2022-09-28T23:30:53.518Z,9.66
2022-09-28T23:33:23.621Z,9.57
2022-09-28T23:35:51.621Z,9.50
2022-09-28T23:38:19.816Z,9.40
2022-09-28T23:40:48.077Z,9.32
2022-09-28T23:43:16.270Z,9.25
2022-09-28T23:45:44.555Z,9.17
2022-09-28T23:48:15.115Z,9.13
2022-09-28T23:50:45.321Z,9.06
2022-09-28T23:53:14.710Z,9.00
2022-09-28T23:55:43.775Z,8.96
2022-09-28T23:58:11.801Z,8.89
